42C weather

White Cloud Airport
White Cloud, Michigan, United States

Public forecast

Using degrees Fahrenheit for public forecast. Weather courtesy of forecast.io.

Closest aviation weather report (METAR) to White Cloud Airport

Closest report is Fremont Municipal Airport, 12.0 nm (22.3 km) SW. Retrieved 2020/08/07 12:15 UTC (0 seconds ago):

KFFX 071215Z AUTO 00000KT 10SM CLR 17/14 A3019 RMK AO2 T01650139

Closest aviation forecast (TAF) to White Cloud Airport

Closest forecast is Muskegon County Airport, 31.0 nm (57.4 km) SW. Retrieved 2020/08/07 12:33 UTC (0 seconds ago):

TAF KMKG 071130Z 0712/0812 00000KT P6SM SKC FM071400 16005KT P6SM SCT050 FM071800 27005KT P6SM SKC FM080000 VRB03KT P6SM SKC